sensor_id;sensor_type;location;lat;lon;timestamp;pressure;altitude;pressure_sealevel;temperature;humidity
12182;BME280;6154;51.550;12.138;2023-11-19T00:01:19;100350.91;;;10.19;71.32
12182;BME280;6154;51.550;12.138;2023-11-19T00:03:47;100331.19;;;10.08;71.36
12182;BME280;6154;51.550;12.138;2023-11-19T00:06:17;100338.97;;;10.12;71.40
12182;BME280;6154;51.550;12.138;2023-11-19T00:08:45;100340.12;;;10.23;70.97
12182;BME280;6154;51.550;12.138;2023-11-19T00:11:13;100346.13;;;10.09;71.19
12182;BME280;6154;51.550;12.138;2023-11-19T00:13:42;100332.06;;;10.09;71.78
12182;BME280;6154;51.550;12.138;2023-11-19T00:16:10;100320.88;;;10.04;71.96
12182;BME280;6154;51.550;12.138;2023-11-19T00:18:40;100315.97;;;10.14;71.47
12182;BME280;6154;51.550;12.138;2023-11-19T00:21:08;100307.75;;;10.02;71.86
12182;BME280;6154;51.550;12.138;2023-11-19T00:23:37;100300.59;;;10.04;71.87
12182;BME280;6154;51.550;12.138;2023-11-19T00:26:05;100293.09;;;10.13;71.62
12182;BME280;6154;51.550;12.138;2023-11-19T00:28:36;100291.91;;;10.02;71.97
12182;BME280;6154;51.550;12.138;2023-11-19T00:31:06;100289.16;;;10.04;72.13
12182;BME280;6154;51.550;12.138;2023-11-19T00:33:34;100283.03;;;10.03;71.89
12182;BME280;6154;51.550;12.138;2023-11-19T00:36:16;100271.41;;;10.06;71.91
12182;BME280;6154;51.550;12.138;2023-11-19T00:38:44;100258.19;;;10.06;71.96
12182;BME280;6154;51.550;12.138;2023-11-19T00:41:12;100245.81;;;9.91;72.32
12182;BME280;6154;51.550;12.138;2023-11-19T00:43:43;100240.37;;;9.94;72.44
12182;BME280;6154;51.550;12.138;2023-11-19T00:46:11;100251.47;;;9.85;72.56
12182;BME280;6154;51.550;12.138;2023-11-19T00:48:40;100236.53;;;9.99;72.01
12182;BME280;6154;51.550;12.138;2023-11-19T00:51:11;100226.81;;;10.00;72.11
12182;BME280;6154;51.550;12.138;2023-11-19T00:53:40;100229.97;;;9.91;72.31
12182;BME280;6154;51.550;12.138;2023-11-19T00:56:10;100221.62;;;9.83;72.54
12182;BME280;6154;51.550;12.138;2023-11-19T00:58:39;100214.25;;;9.72;72.90
12182;BME280;6154;51.550;12.138;2023-11-19T01:01:09;100193.31;;;9.85;72.85
12182;BME280;6154;51.550;12.138;2023-11-19T01:03:38;100182.75;;;9.69;73.07
12182;BME280;6154;51.550;12.138;2023-11-19T01:06:10;100187.00;;;9.87;72.86
12182;BME280;6154;51.550;12.138;2023-11-19T01:08:59;100180.53;;;9.93;72.37
12182;BME280;6154;51.550;12.138;2023-11-19T01:11:28;100176.63;;;9.84;72.62
12182;BME280;6154;51.550;12.138;2023-11-19T01:14:00;100171.84;;;9.75;72.94
12182;BME280;6154;51.550;12.138;2023-11-19T01:16:29;100168.78;;;9.83;72.78
12182;BME280;6154;51.550;12.138;2023-11-19T01:18:58;100167.97;;;9.80;72.77
12182;BME280;6154;51.550;12.138;2023-11-19T01:21:44;100158.69;;;9.89;72.41
12182;BME280;6154;51.550;12.138;2023-11-19T01:24:14;100154.09;;;9.93;72.33
12182;BME280;6154;51.550;12.138;2023-11-19T01:26:43;100131.09;;;9.79;72.76
12182;BME280;6154;51.550;12.138;2023-11-19T01:29:12;100130.06;;;9.82;72.90
12182;BME280;6154;51.550;12.138;2023-11-19T01:31:45;100122.72;;;9.87;73.15
12182;BME280;6154;51.550;12.138;2023-11-19T01:34:14;100108.66;;;9.86;72.76
12182;BME280;6154;51.550;12.138;2023-11-19T01:36:42;100105.50;;;9.95;72.61
12182;BME280;6154;51.550;12.138;2023-11-19T01:39:10;100093.31;;;9.93;72.78
12182;BME280;6154;51.550;12.138;2023-11-19T01:41:39;100089.53;;;9.97;72.71
12182;BME280;6154;51.550;12.138;2023-11-19T01:44:08;100091.16;;;9.99;72.30
12182;BME280;6154;51.550;12.138;2023-11-19T01:46:38;100080.31;;;10.04;72.35
12182;BME280;6154;51.550;12.138;2023-11-19T01:49:07;100086.38;;;10.06;72.31
12182;BME280;6154;51.550;12.138;2023-11-19T01:51:35;100080.41;;;10.02;72.34
12182;BME280;6154;51.550;12.138;2023-11-19T01:54:04;100074.25;;;10.02;72.35
12182;BME280;6154;51.550;12.138;2023-11-19T01:56:33;100065.56;;;10.00;72.33
12182;BME280;6154;51.550;12.138;2023-11-19T01:59:09;100070.44;;;9.92;72.84
12182;BME280;6154;51.550;12.138;2023-11-19T02:01:40;100064.47;;;10.04;72.45
12182;BME280;6154;51.550;12.138;2023-11-19T02:04:11;100067.97;;;10.04;72.49
12182;BME280;6154;51.550;12.138;2023-11-19T02:06:41;100060.69;;;10.08;72.33
12182;BME280;6154;51.550;12.138;2023-11-19T02:09:21;100051.66;;;10.12;72.12
12182;BME280;6154;51.550;12.138;2023-11-19T02:11:50;100047.28;;;10.11;72.21
12182;BME280;6154;51.550;12.138;2023-11-19T02:14:24;100028.47;;;10.01;72.45
12182;BME280;6154;51.550;12.138;2023-11-19T02:16:54;100031.06;;;10.17;72.30
12182;BME280;6154;51.550;12.138;2023-11-19T02:19:23;100033.41;;;10.07;72.30
12182;BME280;6154;51.550;12.138;2023-11-19T02:21:52;100022.38;;;10.15;72.23
12182;BME280;6154;51.550;12.138;2023-11-19T02:24:22;100015.00;;;10.06;72.32
12182;BME280;6154;51.550;12.138;2023-11-19T02:26:56;100004.06;;;10.12;72.29
12182;BME280;6154;51.550;12.138;2023-11-19T02:29:28;99979.31;;;10.13;72.22
12182;BME280;6154;51.550;12.138;2023-11-19T02:31:56;99982.72;;;10.15;72.47
12182;BME280;6154;51.550;12.138;2023-11-19T02:34:24;99961.75;;;10.12;72.40
12182;BME280;6154;51.550;12.138;2023-11-19T02:36:53;99965.41;;;10.09;72.78
12182;BME280;6154;51.550;12.138;2023-11-19T02:39:22;99969.00;;;10.08;72.59
12182;BME280;6154;51.550;12.138;2023-11-19T02:41:50;99969.94;;;10.07;72.73
12182;BME280;6154;51.550;12.138;2023-11-19T02:44:20;99958.91;;;10.15;72.86
12182;BME280;6154;51.550;12.138;2023-11-19T02:46:49;99948.34;;;10.15;72.84
12182;BME280;6154;51.550;12.138;2023-11-19T02:49:17;99939.97;;;10.23;72.44
12182;BME280;6154;51.550;12.138;2023-11-19T02:51:45;99926.13;;;10.18;72.72
12182;BME280;6154;51.550;12.138;2023-11-19T02:54:14;99918.31;;;10.16;72.93
12182;BME280;6154;51.550;12.138;2023-11-19T02:56:42;99911.13;;;10.18;72.92
12182;BME280;6154;51.550;12.138;2023-11-19T02:59:10;99895.06;;;10.21;72.90
12182;BME280;6154;51.550;12.138;2023-11-19T03:01:55;99895.56;;;10.28;72.87
12182;BME280;6154;51.550;12.138;2023-11-19T03:04:23;99882.44;;;10.26;73.11
12182;BME280;6154;51.550;12.138;2023-11-19T03:06:51;99875.25;;;10.28;72.75
12182;BME280;6154;51.550;12.138;2023-11-19T03:09:20;99878.37;;;10.35;72.64
12182;BME280;6154;51.550;12.138;2023-11-19T03:11:48;99869.78;;;10.31;72.90
12182;BME280;6154;51.550;12.138;2023-11-19T03:14:16;99863.34;;;10.07;72.98
12182;BME280;6154;51.550;12.138;2023-11-19T03:16:45;99866.78;;;10.23;73.58
12182;BME280;6154;51.550;12.138;2023-11-19T03:19:15;99876.84;;;10.17;73.86
12182;BME280;6154;51.550;12.138;2023-11-19T03:21:52;99878.00;;;10.13;74.29
12182;BME280;6154;51.550;12.138;2023-11-19T03:24:21;99878.34;;;10.21;74.53
12182;BME280;6154;51.550;12.138;2023-11-19T03:26:49;99861.28;;;10.26;74.52
12182;BME280;6154;51.550;12.138;2023-11-19T03:29:17;99866.38;;;10.29;74.03
12182;BME280;6154;51.550;12.138;2023-11-19T03:31:46;99870.63;;;10.32;73.94
12182;BME280;6154;51.550;12.138;2023-11-19T03:34:15;99858.91;;;10.22;74.43
12182;BME280;6154;51.550;12.138;2023-11-19T03:36:43;99854.09;;;10.28;74.57
12182;BME280;6154;51.550;12.138;2023-11-19T03:39:12;99853.31;;;10.41;74.32
12182;BME280;6154;51.550;12.138;2023-11-19T03:41:40;99857.84;;;10.53;74.01
12182;BME280;6154;51.550;12.138;2023-11-19T03:44:08;99860.84;;;10.61;73.68
12182;BME280;6154;51.550;12.138;2023-11-19T03:46:37;99858.19;;;10.61;73.89
12182;BME280;6154;51.550;12.138;2023-11-19T03:49:08;99853.94;;;10.58;74.02
12182;BME280;6154;51.550;12.138;2023-11-19T03:51:38;99863.19;;;10.65;73.80
12182;BME280;6154;51.550;12.138;2023-11-19T03:54:07;99838.44;;;10.67;73.69
12182;BME280;6154;51.550;12.138;2023-11-19T03:56:35;99845.62;;;10.64;74.07
12182;BME280;6154;51.550;12.138;2023-11-19T03:59:04;99842.88;;;10.66;74.24
12182;BME280;6154;51.550;12.138;2023-11-19T04:01:32;99838.69;;;10.76;74.04
12182;BME280;6154;51.550;12.138;2023-11-19T04:04:00;99838.31;;;10.82;73.59
12182;BME280;6154;51.550;12.138;2023-11-19T04:06:29;99830.25;;;10.84;73.35
12182;BME280;6154;51.550;12.138;2023-11-19T04:08:58;99828.97;;;10.89;73.29
12182;BME280;6154;51.550;12.138;2023-11-19T04:11:26;99835.97;;;10.90;73.62
12182;BME280;6154;51.550;12.138;2023-11-19T04:13:54;99820.50;;;10.84;73.32
12182;BME280;6154;51.550;12.138;2023-11-19T04:16:26;99823.50;;;10.92;73.50
12182;BME280;6154;51.550;12.138;2023-11-19T04:18:55;99816.91;;;10.85;73.84
12182;BME280;6154;51.550;12.138;2023-11-19T04:21:23;99808.88;;;10.87;74.44
12182;BME280;6154;51.550;12.138;2023-11-19T04:23:52;99803.47;;;10.88;74.36
12182;BME280;6154;51.550;12.138;2023-11-19T04:26:21;99782.50;;;10.85;74.46
12182;BME280;6154;51.550;12.138;2023-11-19T04:28:50;99772.31;;;10.79;74.72
12182;BME280;6154;51.550;12.138;2023-11-19T04:31:19;99780.97;;;10.69;75.01
12182;BME280;6154;51.550;12.138;2023-11-19T04:33:47;99765.88;;;10.83;75.40
12182;BME280;6154;51.550;12.138;2023-11-19T04:36:18;99753.81;;;10.92;75.26
12182;BME280;6154;51.550;12.138;2023-11-19T04:38:46;99763.38;;;10.94;75.06
12182;BME280;6154;51.550;12.138;2023-11-19T04:41:15;99752.66;;;10.83;75.91
12182;BME280;6154;51.550;12.138;2023-11-19T04:43:44;99751.50;;;11.00;75.63
12182;BME280;6154;51.550;12.138;2023-11-19T04:46:12;99747.47;;;10.94;75.31
12182;BME280;6154;51.550;12.138;2023-11-19T04:48:40;99745.56;;;10.97;75.11
12182;BME280;6154;51.550;12.138;2023-11-19T04:51:08;99751.31;;;11.16;74.93
12182;BME280;6154;51.550;12.138;2023-11-19T04:53:37;99734.87;;;11.11;75.08
12182;BME280;6154;51.550;12.138;2023-11-19T04:56:09;99729.34;;;10.88;75.65
12182;BME280;6154;51.550;12.138;2023-11-19T04:58:37;99717.84;;;11.15;75.50
12182;BME280;6154;51.550;12.138;2023-11-19T05:01:13;99721.56;;;11.12;75.20
12182;BME280;6154;51.550;12.138;2023-11-19T05:03:43;99724.81;;;11.03;75.53
12182;BME280;6154;51.550;12.138;2023-11-19T05:06:12;99723.75;;;11.18;74.93
12182;BME280;6154;51.550;12.138;2023-11-19T05:08:40;99705.66;;;11.25;75.54
12182;BME280;6154;51.550;12.138;2023-11-19T05:11:08;99723.53;;;11.09;75.50
12182;BME280;6154;51.550;12.138;2023-11-19T05:13:39;99716.56;;;11.20;75.56
12182;BME280;6154;51.550;12.138;2023-11-19T05:16:08;99700.66;;;11.20;75.38
12182;BME280;6154;51.550;12.138;2023-11-19T05:18:36;99715.72;;;11.20;75.81
12182;BME280;6154;51.550;12.138;2023-11-19T05:21:07;99698.56;;;11.26;76.02
12182;BME280;6154;51.550;12.138;2023-11-19T05:23:35;99689.88;;;11.23;75.88
12182;BME280;6154;51.550;12.138;2023-11-19T05:26:04;99694.41;;;11.21;75.79
12182;BME280;6154;51.550;12.138;2023-11-19T05:28:34;99698.34;;;11.16;76.01
12182;BME280;6154;51.550;12.138;2023-11-19T05:31:03;99698.34;;;11.16;76.17
12182;BME280;6154;51.550;12.138;2023-11-19T05:33:32;99700.66;;;11.08;76.21
12182;BME280;6154;51.550;12.138;2023-11-19T05:36:02;99704.37;;;10.92;76.54
12182;BME280;6154;51.550;12.138;2023-11-19T05:38:31;99696.22;;;10.96;76.82
12182;BME280;6154;51.550;12.138;2023-11-19T05:40:59;99702.88;;;10.88;77.64
12182;BME280;6154;51.550;12.138;2023-11-19T05:43:27;99705.97;;;10.82;77.68
12182;BME280;6154;51.550;12.138;2023-11-19T05:45:55;99704.69;;;11.01;77.57
12182;BME280;6154;51.550;12.138;2023-11-19T05:48:25;99701.22;;;11.13;77.38
12182;BME280;6154;51.550;12.138;2023-11-19T05:50:55;99705.44;;;11.28;76.90
12182;BME280;6154;51.550;12.138;2023-11-19T05:53:23;99689.66;;;11.27;76.77
12182;BME280;6154;51.550;12.138;2023-11-19T05:55:51;99682.78;;;11.24;76.54
12182;BME280;6154;51.550;12.138;2023-11-19T05:58:24;99687.22;;;11.36;76.64
12182;BME280;6154;51.550;12.138;2023-11-19T06:00:55;99687.44;;;11.33;76.27
12182;BME280;6154;51.550;12.138;2023-11-19T06:03:23;99694.50;;;11.45;76.04
12182;BME280;6154;51.550;12.138;2023-11-19T06:05:52;99685.28;;;11.38;76.00
12182;BME280;6154;51.550;12.138;2023-11-19T06:08:22;99675.63;;;11.50;76.06
12182;BME280;6154;51.550;12.138;2023-11-19T06:10:50;99666.06;;;11.60;75.73
12182;BME280;6154;51.550;12.138;2023-11-19T06:13:18;99678.72;;;11.44;76.68
12182;BME280;6154;51.550;12.138;2023-11-19T06:15:50;99690.88;;;11.59;76.28
12182;BME280;6154;51.550;12.138;2023-11-19T06:18:18;99686.03;;;11.53;76.93
12182;BME280;6154;51.550;12.138;2023-11-19T06:20:47;99681.19;;;11.71;76.63
12182;BME280;6154;51.550;12.138;2023-11-19T06:23:16;99680.47;;;11.69;76.20
12182;BME280;6154;51.550;12.138;2023-11-19T06:25:46;99678.34;;;11.74;76.20
12182;BME280;6154;51.550;12.138;2023-11-19T06:28:14;99688.22;;;11.59;76.84
12182;BME280;6154;51.550;12.138;2023-11-19T06:30:44;99676.13;;;11.68;76.96
12182;BME280;6154;51.550;12.138;2023-11-19T06:33:15;99685.56;;;11.59;76.83
12182;BME280;6154;51.550;12.138;2023-11-19T06:35:44;99680.25;;;11.72;77.05
12182;BME280;6154;51.550;12.138;2023-11-19T06:38:12;99673.66;;;11.77;76.69
12182;BME280;6154;51.550;12.138;2023-11-19T06:40:40;99681.13;;;11.72;76.59
12182;BME280;6154;51.550;12.138;2023-11-19T06:43:10;99678.34;;;11.74;76.04
12182;BME280;6154;51.550;12.138;2023-11-19T06:45:38;99690.22;;;11.81;75.64
12182;BME280;6154;51.550;12.138;2023-11-19T06:48:06;99695.31;;;11.84;75.27
12182;BME280;6154;51.550;12.138;2023-11-19T06:50:34;99688.53;;;11.80;75.08
12182;BME280;6154;51.550;12.138;2023-11-19T06:53:02;99681.94;;;11.86;74.60
12182;BME280;6154;51.550;12.138;2023-11-19T06:55:32;99688.09;;;11.86;74.59
12182;BME280;6154;51.550;12.138;2023-11-19T06:58:00;99689.56;;;11.90;74.20
12182;BME280;6154;51.550;12.138;2023-11-19T07:00:30;99704.50;;;11.91;74.02
12182;BME280;6154;51.550;12.138;2023-11-19T07:03:00;99713.41;;;11.90;73.97
12182;BME280;6154;51.550;12.138;2023-11-19T07:05:28;99699.72;;;11.96;74.28
12182;BME280;6154;51.550;12.138;2023-11-19T07:07:57;99694.91;;;12.01;74.08
12182;BME280;6154;51.550;12.138;2023-11-19T07:10:25;99709.03;;;12.02;74.57
12182;BME280;6154;51.550;12.138;2023-11-19T07:12:53;99710.50;;;12.06;74.18
12182;BME280;6154;51.550;12.138;2023-11-19T07:15:21;99713.66;;;12.11;74.23
12182;BME280;6154;51.550;12.138;2023-11-19T07:17:51;99720.56;;;12.14;73.72
12182;BME280;6154;51.550;12.138;2023-11-19T07:20:24;99724.44;;;12.21;73.63
12182;BME280;6154;51.550;12.138;2023-11-19T07:22:55;99724.84;;;12.27;73.96
12182;BME280;6154;51.550;12.138;2023-11-19T07:25:24;99724.75;;;12.29;73.38
12182;BME280;6154;51.550;12.138;2023-11-19T07:27:53;99730.28;;;12.26;73.58
12182;BME280;6154;51.550;12.138;2023-11-19T07:30:22;99727.84;;;12.23;73.38
12182;BME280;6154;51.550;12.138;2023-11-19T07:32:51;99720.63;;;12.25;73.95
12182;BME280;6154;51.550;12.138;2023-11-19T07:35:20;99727.78;;;12.35;74.02
12182;BME280;6154;51.550;12.138;2023-11-19T07:37:48;99720.56;;;12.37;73.98
12182;BME280;6154;51.550;12.138;2023-11-19T07:40:17;99724.38;;;12.57;73.81
12182;BME280;6154;51.550;12.138;2023-11-19T07:42:45;99735.28;;;12.65;73.90
12182;BME280;6154;51.550;12.138;2023-11-19T07:45:14;99747.41;;;12.81;73.33
12182;BME280;6154;51.550;12.138;2023-11-19T07:47:42;99735.59;;;12.85;72.89
12182;BME280;6154;51.550;12.138;2023-11-19T07:50:13;99746.59;;;12.91;72.97
12182;BME280;6154;51.550;12.138;2023-11-19T07:52:44;99736.81;;;12.92;72.98
12182;BME280;6154;51.550;12.138;2023-11-19T07:55:12;99737.44;;;12.95;72.77
12182;BME280;6154;51.550;12.138;2023-11-19T07:57:40;99735.34;;;12.88;73.45
12182;BME280;6154;51.550;12.138;2023-11-19T08:00:10;99731.28;;;12.95;73.33
12182;BME280;6154;51.550;12.138;2023-11-19T08:02:39;99728.75;;;12.93;73.91
12182;BME280;6154;51.550;12.138;2023-11-19T08:05:08;99734.37;;;12.89;74.58
12182;BME280;6154;51.550;12.138;2023-11-19T08:07:38;99736.19;;;12.88;74.54
12182;BME280;6154;51.550;12.138;2023-11-19T08:10:07;99726.19;;;12.92;74.36
12182;BME280;6154;51.550;12.138;2023-11-19T08:12:37;99729.19;;;12.87;74.61
12182;BME280;6154;51.550;12.138;2023-11-19T08:15:05;99735.09;;;12.80;75.32
12182;BME280;6154;51.550;12.138;2023-11-19T08:17:34;99746.22;;;12.85;75.48
12182;BME280;6154;51.550;12.138;2023-11-19T08:20:02;99748.19;;;12.94;75.41
12182;BME280;6154;51.550;12.138;2023-11-19T08:22:32;99745.28;;;12.97;74.82
12182;BME280;6154;51.550;12.138;2023-11-19T08:25:04;99746.28;;;13.07;75.12
12182;BME280;6154;51.550;12.138;2023-11-19T08:27:32;99739.97;;;12.97;75.77
12182;BME280;6154;51.550;12.138;2023-11-19T08:30:01;99740.97;;;13.07;75.33
12182;BME280;6154;51.550;12.138;2023-11-19T08:32:29;99734.03;;;13.29;75.48
12182;BME280;6154;51.550;12.138;2023-11-19T08:34:57;99731.03;;;13.44;75.63
12182;BME280;6154;51.550;12.138;2023-11-19T08:37:26;99730.41;;;13.52;75.71
12182;BME280;6154;51.550;12.138;2023-11-19T08:39:55;99727.78;;;13.74;75.50
12182;BME280;6154;51.550;12.138;2023-11-19T08:42:25;99743.75;;;13.63;75.32
12182;BME280;6154;51.550;12.138;2023-11-19T08:44:53;99738.88;;;13.57;75.12
12182;BME280;6154;51.550;12.138;2023-11-19T08:47:21;99746.97;;;13.78;75.29
12182;BME280;6154;51.550;12.138;2023-11-19T08:49:50;99749.06;;;13.74;75.10
12182;BME280;6154;51.550;12.138;2023-11-19T08:52:23;99733.63;;;14.12;74.23
12182;BME280;6154;51.550;12.138;2023-11-19T08:54:51;99753.25;;;13.99;74.34
12182;BME280;6154;51.550;12.138;2023-11-19T08:57:19;99752.62;;;14.07;74.19
12182;BME280;6154;51.550;12.138;2023-11-19T08:59:52;99752.59;;;14.29;74.34
12182;BME280;6154;51.550;12.138;2023-11-19T09:02:20;99750.19;;;14.26;74.05
12182;BME280;6154;51.550;12.138;2023-11-19T09:04:48;99751.97;;;14.48;73.89
12182;BME280;6154;51.550;12.138;2023-11-19T09:07:19;99751.38;;;14.45;73.80
12182;BME280;6154;51.550;12.138;2023-11-19T09:09:48;99748.72;;;14.77;74.01
12182;BME280;6154;51.550;12.138;2023-11-19T09:12:16;99756.47;;;15.01;73.10
12182;BME280;6154;51.550;12.138;2023-11-19T09:14:44;99759.47;;;15.07;72.67
12182;BME280;6154;51.550;12.138;2023-11-19T09:17:15;99758.34;;;15.10;72.91
12182;BME280;6154;51.550;12.138;2023-11-19T09:19:44;99765.75;;;15.27;72.68
12182;BME280;6154;51.550;12.138;2023-11-19T09:22:12;99761.72;;;15.33;72.42
12182;BME280;6154;51.550;12.138;2023-11-19T09:24:41;99752.81;;;15.02;72.21
12182;BME280;6154;51.550;12.138;2023-11-19T09:27:11;99764.16;;;15.15;72.39
12182;BME280;6154;51.550;12.138;2023-11-19T09:29:39;99760.22;;;15.19;72.48
12182;BME280;6154;51.550;12.138;2023-11-19T09:32:07;99767.72;;;15.25;72.37
12182;BME280;6154;51.550;12.138;2023-11-19T09:34:37;99767.44;;;15.28;72.50
12182;BME280;6154;51.550;12.138;2023-11-19T09:37:05;99781.03;;;15.46;71.97
12182;BME280;6154;51.550;12.138;2023-11-19T09:39:48;99781.59;;;15.49;71.69
12182;BME280;6154;51.550;12.138;2023-11-19T09:42:16;99773.34;;;15.32;72.12
12182;BME280;6154;51.550;12.138;2023-11-19T09:44:45;99766.41;;;15.40;71.87
12182;BME280;6154;51.550;12.138;2023-11-19T09:47:16;99772.28;;;15.34;71.98
12182;BME280;6154;51.550;12.138;2023-11-19T09:49:48;99778.22;;;15.47;71.80
12182;BME280;6154;51.550;12.138;2023-11-19T09:52:17;99770.66;;;15.52;71.69
12182;BME280;6154;51.550;12.138;2023-11-19T09:54:45;99775.06;;;15.53;71.60
12182;BME280;6154;51.550;12.138;2023-11-19T09:57:14;99763.91;;;15.48;71.57
12182;BME280;6154;51.550;12.138;2023-11-19T09:59:45;99764.72;;;15.39;71.83
12182;BME280;6154;51.550;12.138;2023-11-19T10:02:14;99759.44;;;15.49;71.69
12182;BME280;6154;51.550;12.138;2023-11-19T10:04:43;99757.03;;;15.46;71.65
12182;BME280;6154;51.550;12.138;2023-11-19T10:07:15;99753.19;;;15.39;71.73
12182;BME280;6154;51.550;12.138;2023-11-19T10:09:43;99760.22;;;15.40;71.96
12182;BME280;6154;51.550;12.138;2023-11-19T10:12:13;99768.34;;;15.38;71.59
12182;BME280;6154;51.550;12.138;2023-11-19T10:14:42;99757.69;;;15.38;71.93
12182;BME280;6154;51.550;12.138;2023-11-19T10:17:11;99770.09;;;15.49;72.00
12182;BME280;6154;51.550;12.138;2023-11-19T10:19:39;99772.63;;;15.50;71.85
12182;BME280;6154;51.550;12.138;2023-11-19T10:22:08;99768.47;;;15.58;71.79
12182;BME280;6154;51.550;12.138;2023-11-19T10:24:38;99776.31;;;15.59;71.73
12182;BME280;6154;51.550;12.138;2023-11-19T10:27:15;99776.94;;;15.63;71.96
12182;BME280;6154;51.550;12.138;2023-11-19T10:29:45;99776.41;;;15.69;71.85
12182;BME280;6154;51.550;12.138;2023-11-19T10:32:13;99771.13;;;15.78;71.88
12182;BME280;6154;51.550;12.138;2023-11-19T10:35:04;99766.34;;;15.82;72.09
12182;BME280;6154;51.550;12.138;2023-11-19T10:37:33;99763.84;;;15.90;71.60
12182;BME280;6154;51.550;12.138;2023-11-19T10:40:07;99769.78;;;15.94;71.57
12182;BME280;6154;51.550;12.138;2023-11-19T10:42:37;99766.38;;;15.92;71.20
12182;BME280;6154;51.550;12.138;2023-11-19T10:45:21;99752.66;;;15.96;71.37
12182;BME280;6154;51.550;12.138;2023-11-19T10:47:51;99758.28;;;16.03;71.73
12182;BME280;6154;51.550;12.138;2023-11-19T10:50:20;99753.53;;;16.06;72.00
12182;BME280;6154;51.550;12.138;2023-11-19T10:52:52;99754.38;;;16.07;71.66
12182;BME280;6154;51.550;12.138;2023-11-19T10:55:27;99753.25;;;16.09;71.71
12182;BME280;6154;51.550;12.138;2023-11-19T10:57:59;99751.16;;;16.23;71.92
12182;BME280;6154;51.550;12.138;2023-11-19T11:00:30;99748.28;;;16.45;71.93
12182;BME280;6154;51.550;12.138;2023-11-19T11:03:00;99746.72;;;16.62;71.50
12182;BME280;6154;51.550;12.138;2023-11-19T11:05:32;99737.75;;;16.73;71.39
12182;BME280;6154;51.550;12.138;2023-11-19T11:08:01;99739.72;;;16.80;71.37
12182;BME280;6154;51.550;12.138;2023-11-19T11:10:35;99746.34;;;16.95;71.48
12182;BME280;6154;51.550;12.138;2023-11-19T11:13:24;99739.31;;;17.04;71.30
12182;BME280;6154;51.550;12.138;2023-11-19T11:15:55;99732.25;;;17.03;70.26
12182;BME280;6154;51.550;12.138;2023-11-19T11:18:25;99737.88;;;17.00;69.94
12182;BME280;6154;51.550;12.138;2023-11-19T11:20:56;99744.38;;;16.98;69.56
12182;BME280;6154;51.550;12.138;2023-11-19T11:24:00;99734.97;;;16.74;68.47
12182;BME280;6154;51.550;12.138;2023-11-19T11:26:53;99729.75;;;16.73;68.37
12182;BME280;6154;51.550;12.138;2023-11-19T11:29:35;99727.75;;;16.36;68.17
12182;BME280;6154;51.550;12.138;2023-11-19T11:32:14;99726.63;;;16.67;67.95
12182;BME280;6154;51.550;12.138;2023-11-19T11:34:58;99727.66;;;16.86;67.68
12182;BME280;6154;51.550;12.138;2023-11-19T11:37:34;99727.19;;;17.00;66.53
12182;BME280;6154;51.550;12.138;2023-11-19T11:40:05;99733.81;;;17.15;67.42
12182;BME280;6154;51.550;12.138;2023-11-19T11:42:39;99721.19;;;17.45;66.70
12182;BME280;6154;51.550;12.138;2023-11-19T11:45:09;99723.66;;;17.75;66.22
12182;BME280;6154;51.550;12.138;2023-11-19T11:48:04;99723.19;;;17.80;65.32
12182;BME280;6154;51.550;12.138;2023-11-19T11:50:35;99709.53;;;17.73;63.78
12182;BME280;6154;51.550;12.138;2023-11-19T11:53:15;99719.87;;;17.96;64.54
12182;BME280;6154;51.550;12.138;2023-11-19T11:55:55;99720.47;;;17.90;63.00
12182;BME280;6154;51.550;12.138;2023-11-19T11:58:30;99732.06;;;18.08;64.53
12182;BME280;6154;51.550;12.138;2023-11-19T12:01:03;99739.88;;;17.92;64.40
12182;BME280;6154;51.550;12.138;2023-11-19T12:03:33;99723.50;;;18.04;64.80
12182;BME280;6154;51.550;12.138;2023-11-19T12:06:02;99729.28;;;18.00;65.06
12182;BME280;6154;51.550;12.138;2023-11-19T12:08:31;99730.88;;;17.93;65.36
12182;BME280;6154;51.550;12.138;2023-11-19T12:11:20;99721.00;;;17.93;65.86
12182;BME280;6154;51.550;12.138;2023-11-19T12:13:55;99722.75;;;17.85;65.68
12182;BME280;6154;51.550;12.138;2023-11-19T12:16:26;99725.91;;;17.70;64.93
12182;BME280;6154;51.550;12.138;2023-11-19T12:18:56;99730.56;;;17.59;65.39
12182;BME280;6154;51.550;12.138;2023-11-19T12:21:28;99726.78;;;17.51;65.61
12182;BME280;6154;51.550;12.138;2023-11-19T12:23:58;99725.72;;;17.44;65.72
12182;BME280;6154;51.550;12.138;2023-11-19T12:26:35;99716.53;;;17.47;66.30
12182;BME280;6154;51.550;12.138;2023-11-19T12:29:05;99714.25;;;17.52;66.54
12182;BME280;6154;51.550;12.138;2023-11-19T12:31:36;99703.53;;;17.52;66.13
12182;BME280;6154;51.550;12.138;2023-11-19T12:34:08;99694.25;;;17.56;65.89
12182;BME280;6154;51.550;12.138;2023-11-19T12:36:40;99701.19;;;17.49;66.02
12182;BME280;6154;51.550;12.138;2023-11-19T12:39:10;99708.94;;;17.42;66.53
12182;BME280;6154;51.550;12.138;2023-11-19T12:41:51;99708.03;;;17.24;65.85
12182;BME280;6154;51.550;12.138;2023-11-19T12:44:22;99718.75;;;17.14;65.80
12182;BME280;6154;51.550;12.138;2023-11-19T12:47:00;99712.28;;;17.07;64.81
12182;BME280;6154;51.550;12.138;2023-11-19T12:49:29;99715.12;;;16.86;64.34
12182;BME280;6154;51.550;12.138;2023-11-19T12:51:57;99718.87;;;17.03;65.22
12182;BME280;6154;51.550;12.138;2023-11-19T12:54:34;99715.38;;;16.93;64.85
12182;BME280;6154;51.550;12.138;2023-11-19T12:57:03;99720.03;;;16.91;64.67
12182;BME280;6154;51.550;12.138;2023-11-19T12:59:33;99720.47;;;16.86;65.22
12182;BME280;6154;51.550;12.138;2023-11-19T13:02:02;99713.00;;;16.90;64.38
12182;BME280;6154;51.550;12.138;2023-11-19T13:04:33;99718.34;;;16.90;64.88
12182;BME280;6154;51.550;12.138;2023-11-19T13:07:02;99727.78;;;17.04;64.92
12182;BME280;6154;51.550;12.138;2023-11-19T13:09:32;99723.28;;;17.04;64.02
12182;BME280;6154;51.550;12.138;2023-11-19T13:12:12;99714.81;;;17.09;63.95
12182;BME280;6154;51.550;12.138;2023-11-19T13:14:42;99711.53;;;17.24;63.20
12182;BME280;6154;51.550;12.138;2023-11-19T13:17:13;99719.09;;;17.39;64.63